Time;durP1;ratioP1;P1;durP2;ratioP2;P2;SDS_P1;SDS_P2;PMS_P1;PMS_P2;Temp;Humidity;BMP_temperature;BMP_pressure;BME280_temperature;BME280_humidity;BME280_pressure;Samples;Min_cycle;Max_cycle;Signal;HPM_P1;HPM_P2
2021/07/29 00:02:11;;;;;;;4.73;4.27;;;;;;;16.89;100.00;98854.88;10412131;28;20216;-79
2021/07/29 00:07:30;;;;;;;4.83;4.50;;;;;;;16.68;100.00;98859.56;10398621;28;20255;-79
2021/07/29 00:12:49;;;;;;;5.57;4.33;;;;;;;16.58;100.00;98857.88;10438691;28;20187;-79
2021/07/29 00:23:27;;;;;;;4.00;3.47;;;;;;;16.65;100.00;98864.00;10461543;28;20634;-79
2021/07/29 00:28:46;;;;;;;5.10;4.80;;;;;;;16.47;100.00;98857.44;10446461;28;20250;-78
2021/07/29 00:34:05;;;;;;;4.30;4.00;;;;;;;16.39;100.00;98856.88;10446248;28;20595;-79
2021/07/29 00:39:24;;;;;;;4.00;3.70;;;;;;;16.31;100.00;98857.56;10434942;28;20215;-80
2021/07/29 00:44:43;;;;;;;4.80;4.50;;;;;;;16.35;100.00;98856.22;10403598;28;20184;-79
2021/07/29 00:50:02;;;;;;;4.10;3.80;;;;;;;16.28;100.00;98852.84;10404768;28;20173;-79
2021/07/29 00:55:22;;;;;;;4.37;3.97;;;;;;;16.12;100.00;98845.38;10404589;28;20168;-79
2021/07/29 01:00:41;;;;;;;4.37;3.97;;;;;;;16.09;100.00;98837.16;10417812;28;20196;-80
2021/07/29 01:06:00;;;;;;;5.10;4.07;;;;;;;16.04;100.00;98838.47;10419050;28;20212;-79
2021/07/29 01:11:19;;;;;;;4.77;4.43;;;;;;;15.95;100.00;98845.91;10447654;28;20187;-79
2021/07/29 01:16:39;;;;;;;4.43;4.03;;;;;;;15.91;100.00;98841.66;10458748;28;20258;-79
2021/07/29 01:21:58;;;;;;;4.30;4.00;;;;;;;15.74;100.00;98843.75;10459292;28;20207;-80
2021/07/29 01:27:18;;;;;;;4.43;4.13;;;;;;;15.69;100.00;98841.50;10458774;28;20175;-79
2021/07/29 01:32:39;;;;;;;4.60;4.20;;;;;;;15.78;100.00;98840.88;10457312;28;20215;-80
2021/07/29 01:37:58;;;;;;;4.93;4.53;;;;;;;15.78;100.00;98838.09;10458615;28;20171;-79
2021/07/29 01:43:17;;;;;;;6.07;4.47;;;;;;;15.70;100.00;98837.50;10401924;28;20207;-80
2021/07/29 01:48:36;;;;;;;3.93;3.70;;;;;;;15.68;100.00;98844.72;10402353;28;20184;-80
2021/07/29 01:53:55;;;;;;;5.80;4.57;;;;;;;15.58;100.00;98835.47;10417344;28;20176;-79
2021/07/29 01:59:14;;;;;;;5.63;4.30;;;;;;;15.52;100.00;98837.22;10415613;28;21087;-80
2021/07/29 02:04:35;;;;;;;6.20;4.37;;;;;;;15.36;100.00;98842.78;10416828;28;20672;-79
2021/07/29 02:09:54;;;;;;;5.80;4.80;;;;;;;15.44;100.00;98837.84;10412188;28;20179;-80
2021/07/29 02:15:13;;;;;;;5.77;4.20;;;;;;;15.37;100.00;98847.13;10456380;28;20175;-79
2021/07/29 02:20:32;;;;;;;7.63;5.20;;;;;;;15.26;100.00;98843.88;10441843;28;20207;-79
2021/07/29 02:25:50;;;;;;;4.77;4.37;;;;;;;15.19;100.00;98837.69;10457358;28;20622;-80
2021/07/29 02:31:11;;;;;;;5.90;5.40;;;;;;;15.11;100.00;98841.06;10455246;28;20223;-80
2021/07/29 02:36:29;;;;;;;5.30;4.80;;;;;;;15.20;100.00;98840.03;10456853;28;20203;-80
2021/07/29 02:41:48;;;;;;;5.70;5.20;;;;;;;15.20;100.00;98839.25;10423808;28;20211;-79
2021/07/29 02:47:08;;;;;;;5.73;4.80;;;;;;;15.14;100.00;98838.22;10414051;28;20176;-80
2021/07/29 02:52:27;;;;;;;6.17;5.10;;;;;;;15.05;100.00;98840.84;10415226;28;20172;-80
2021/07/29 02:57:46;;;;;;;5.60;5.10;;;;;;;15.00;100.00;98837.81;10415029;28;20180;-81
2021/07/29 03:03:05;;;;;;;8.20;5.63;;;;;;;14.91;100.00;98841.19;10413064;28;20215;-80
2021/07/29 03:08:24;;;;;;;8.67;6.10;;;;;;;14.91;100.00;98848.72;10400591;28;20630;-80
2021/07/29 03:13:43;;;;;;;11.77;5.80;;;;;;;14.91;100.00;98848.72;10414789;28;20633;-80
2021/07/29 03:19:02;;;;;;;6.50;5.80;;;;;;;14.79;100.00;98844.66;10414472;28;20698;-80
2021/07/29 03:24:21;;;;;;;5.93;5.10;;;;;;;14.76;100.00;98847.50;10414677;28;20180;-81
2021/07/29 03:29:40;;;;;;;5.53;5.03;;;;;;;14.84;100.00;98843.34;10412881;28;20593;-80
2021/07/29 03:34:59;;;;;;;6.43;5.43;;;;;;;14.84;100.00;98835.06;10414173;28;20195;-81
2021/07/29 03:40:18;;;;;;;8.00;5.70;;;;;;;14.82;100.00;98832.69;10425578;28;20677;-80
2021/07/29 03:45:43;;;;;;;8.13;5.10;;;;;;;14.85;100.00;98842.16;10454070;28;20255;-80
2021/07/29 03:51:02;;;;;;;9.87;6.53;;;;;;;14.78;100.00;98847.88;10462135;28;20183;-80
2021/07/29 03:56:21;;;;;;;9.63;5.10;;;;;;;14.74;100.00;98853.47;10463047;28;20179;-79
2021/07/29 04:01:40;;;;;;;6.47;5.33;;;;;;;14.82;100.00;98848.53;10461265;28;20206;-79
2021/07/29 04:06:59;;;;;;;6.03;5.53;;;;;;;14.77;100.00;98846.31;10447437;28;20176;-79
2021/07/29 04:12:18;;;;;;;8.03;5.97;;;;;;;14.67;100.00;98848.09;10411895;28;20187;-79
2021/07/29 04:17:40;;;;;;;7.37;5.30;;;;;;;14.70;100.00;98852.00;10404647;28;20172;-79
2021/07/29 04:22:59;;;;;;;6.77;5.40;;;;;;;14.74;100.00;98856.22;10405242;28;20203;-78
2021/07/29 04:28:18;;;;;;;8.63;5.93;;;;;;;14.98;100.00;98862.38;10420573;28;20554;-80
2021/07/29 04:33:36;;;;;;;9.97;5.30;;;;;;;15.00;100.00;98865.50;10419010;28;20208;-78
2021/07/29 04:38:55;;;;;;;9.00;5.63;;;;;;;15.06;100.00;98859.03;10405962;28;20670;-79
2021/07/29 04:44:15;;;;;;;9.80;5.80;;;;;;;15.13;100.00;98866.34;10418866;28;20188;-80
2021/07/29 04:49:34;;;;;;;5.13;4.63;;;;;;;15.44;100.00;98852.47;10419920;28;20248;-81
2021/07/29 04:54:53;;;;;;;5.87;5.37;;;;;;;15.69;100.00;98860.91;10419600;28;20175;-79
2021/07/29 05:00:12;;;;;;;9.40;5.40;;;;;;;15.93;100.00;98867.75;10416897;28;20243;-81
2021/07/29 05:05:32;;;;;;;5.77;4.30;;;;;;;16.07;100.00;98867.38;10419175;28;20180;-80
2021/07/29 05:10:51;;;;;;;8.33;4.60;;;;;;;16.15;100.00;98852.06;10444300;28;20183;-80
2021/07/29 05:16:10;;;;;;;6.07;4.00;;;;;;;16.23;100.00;98865.28;10458733;28;20207;-80
2021/07/29 05:21:29;;;;;;;6.03;4.90;;;;;;;16.36;100.00;98863.31;10459166;28;20211;-79
2021/07/29 05:26:48;;;;;;;7.37;4.90;;;;;;;16.48;100.00;98858.97;10459535;28;20533;-78
2021/07/29 05:32:08;;;;;;;5.27;4.77;;;;;;;16.51;100.00;98860.88;10457577;28;20219;-80
2021/07/29 05:37:27;;;;;;;10.73;5.30;;;;;;;16.60;100.00;98866.56;10444133;28;20180;-79
2021/07/29 05:42:46;;;;;;;8.87;4.77;;;;;;;16.65;100.00;98868.75;10435512;28;20219;-79
2021/07/29 05:48:05;;;;;;;4.70;4.33;;;;;;;16.66;100.00;98862.00;10457591;28;20183;-79
2021/07/29 05:53:24;;;;;;;4.80;4.40;;;;;;;16.78;100.00;98873.91;10458466;28;20175;-80
2021/07/29 05:58:43;;;;;;;9.40;4.43;;;;;;;16.81;100.00;98872.22;10458275;28;20270;-80
2021/07/29 06:04:02;;;;;;;6.70;4.77;;;;;;;16.97;100.00;98872.09;10457905;28;20183;-79
2021/07/29 06:09:21;;;;;;;4.93;4.53;;;;;;;17.13;100.00;98858.81;10442367;28;20645;-79
2021/07/29 06:14:40;;;;;;;6.60;4.60;;;;;;;17.27;100.00;98868.69;10415015;28;20184;-79
2021/07/29 06:20:05;;;;;;;7.23;4.50;;;;;;;17.21;100.00;98871.25;10416034;28;20700;-79
2021/07/29 06:25:24;;;;;;;5.70;4.40;;;;;;;17.56;100.00;98872.88;10416199;28;20172;-79
2021/07/29 06:30:43;;;;;;;5.10;4.60;;;;;;;17.76;100.00;98865.78;10414341;28;20231;-80
2021/07/29 06:36:03;;;;;;;4.23;3.83;;;;;;;17.78;100.00;98868.09;10415716;28;20208;-80
2021/07/29 06:41:22;;;;;;;4.13;3.80;;;;;;;17.94;99.82;98871.47;10435727;28;20247;-79
2021/07/29 06:46:41;;;;;;;4.23;3.90;;;;;;;18.06;99.77;98869.84;10414034;28;20184;-80
2021/07/29 06:52:00;;;;;;;4.70;4.20;;;;;;;18.33;97.18;98872.84;10415178;28;20179;-81
2021/07/29 06:57:19;;;;;;;4.10;3.80;;;;;;;18.38;96.00;98869.47;10415077;28;20176;-80
2021/07/29 07:02:38;;;;;;;4.00;3.67;;;;;;;18.43;93.69;98881.56;10413185;28;20200;-80
2021/07/29 07:07:57;;;;;;;4.43;4.13;;;;;;;18.60;92.74;98877.31;10414979;28;20176;-80
2021/07/29 07:13:16;;;;;;;5.50;5.00;;;;;;;18.96;88.36;98888.63;10413914;28;20183;-79
2021/07/29 07:18:35;;;;;;;4.57;4.17;;;;;;;19.06;88.30;98889.41;10454268;28;20274;-79
2021/07/29 07:23:54;;;;;;;7.10;3.87;;;;;;;19.01;86.69;98887.25;10459397;28;20175;-81
2021/07/29 07:29:13;;;;;;;4.00;3.70;;;;;;;19.14;85.61;98897.09;10447329;28;20227;-79
2021/07/29 07:34:32;;;;;;;6.47;3.97;;;;;;;19.32;86.49;98892.31;10463907;28;20718;-79
2021/07/29 07:39:51;;;;;;;4.10;3.77;;;;;;;19.30;85.49;98894.03;10463363;28;20214;-80
2021/07/29 07:45:10;;;;;;;4.60;3.83;;;;;;;19.40;83.39;98895.56;10433105;28;20258;-79
2021/07/29 07:50:29;;;;;;;5.90;3.97;;;;;;;19.27;83.07;98894.94;10422145;28;20180;-80
2021/07/29 07:55:48;;;;;;;4.17;3.87;;;;;;;19.34;83.78;98891.84;10421960;28;20529;-80
2021/07/29 08:01:07;;;;;;;5.50;3.93;;;;;;;19.58;80.88;98887.22;10405136;28;20305;-80
2021/07/29 08:06:25;;;;;;;3.80;3.50;;;;;;;19.96;81.43;98881.97;10421615;28;20184;-79
2021/07/29 08:11:44;;;;;;;4.30;3.90;;;;;;;20.35;78.49;98876.97;10421192;28;20180;-81
2021/07/29 08:17:05;;;;;;;4.00;3.70;;;;;;;20.51;74.32;98876.63;10433361;28;20548;-80
2021/07/29 08:22:24;;;;;;;3.87;3.57;;;;;;;20.83;73.68;98867.53;10445680;28;20565;-80
2021/07/29 08:27:42;;;;;;;4.13;3.47;;;;;;;21.58;71.20;98871.75;10420568;28;20542;-81
2021/07/29 08:33:11;;;;;;;4.87;3.90;;;;;;;21.15;64.95;98875.91;10418506;28;20224;-82
2021/07/29 08:38:31;;;;;;;4.77;3.80;;;;;;;20.98;65.86;98879.56;10405266;28;20618;-80
2021/07/29 08:43:50;;;;;;;4.33;3.70;;;;;;;21.22;65.34;98874.78;10420199;28;20647;-80
2021/07/29 08:49:10;;;;;;;3.63;3.40;;;;;;;21.04;65.87;98872.09;10419857;28;20262;-79
2021/07/29 08:54:29;;;;;;;3.97;3.67;;;;;;;21.96;60.77;98878.16;10424636;28;20183;-80
2021/07/29 08:59:48;;;;;;;4.20;3.83;;;;;;;22.09;60.21;98865.41;10430139;28;20677;-81
2021/07/29 09:05:17;;;;;;;7.73;4.30;;;;;;;21.89;58.48;98878.53;10460372;28;20175;-79
2021/07/29 09:10:40;;;;;;;3.30;3.00;;;;;;;21.74;54.78;98872.13;10460355;28;20191;-80
2021/07/29 09:16:09;;;;;;;4.00;3.53;;;;;;;21.47;57.65;98886.28;10458836;28;20180;-79
2021/07/29 09:21:29;;;;;;;6.20;3.47;;;;;;;20.95;56.08;98883.31;10444485;28;20577;-78
2021/07/29 09:26:58;;;;;;;5.70;3.63;;;;;;;20.93;56.17;98881.00;10420445;28;20725;-80
2021/07/29 09:32:19;;;;;;;3.70;3.40;;;;;;;21.17;55.62;98883.81;10416324;28;20232;-80
2021/07/29 09:37:51;;;;;;;4.47;3.37;;;;;;;22.03;54.55;98877.78;10418001;28;20176;-79
2021/07/29 09:43:14;;;;;;;6.70;4.23;;;;;;;22.38;53.07;98873.88;10417353;28;20259;-79
2021/07/29 09:48:33;;;;;;;3.70;3.40;;;;;;;22.09;50.04;98887.06;10400820;28;20172;-79
2021/07/29 09:53:54;;;;;;;4.60;3.67;;;;;;;21.50;53.51;98867.75;10431587;28;20539;-79
2021/07/29 09:59:13;;;;;;;4.03;3.60;;;;;;;21.54;51.25;98868.34;10441991;28;20191;-79
2021/07/29 10:04:46;;;;;;;4.17;3.87;;;;;;;21.80;51.68;98870.97;10443237;28;20175;-79
2021/07/29 10:10:08;;;;;;;4.43;4.03;;;;;;;22.71;47.38;98871.63;10442924;28;20172;-79
2021/07/29 10:15:40;;;;;;;4.23;3.83;;;;;;;22.79;45.58;98865.16;10456738;28;20179;-80
2021/07/29 10:21:29;;;;;;;4.13;3.73;;;;;;;22.79;45.15;98873.56;10457147;28;20211;-80
2021/07/29 10:27:00;;;;;;;4.47;4.10;;;;;;;22.96;45.58;98868.19;10401299;28;20184;-79
2021/07/29 10:32:48;;;;;;;4.07;3.63;;;;;;;23.60;43.28;98870.41;10399205;28;20228;-79
2021/07/29 10:38:07;;;;;;;3.80;3.50;;;;;;;23.01;45.44;98867.53;10415900;28;20180;-79
2021/07/29 10:43:30;;;;;;;5.30;3.50;;;;;;;22.74;46.87;98865.81;10415054;28;20208;-79
2021/07/29 10:48:50;;;;;;;4.67;3.60;;;;;;;21.97;49.97;98872.06;10414170;28;20180;-79
2021/07/29 10:54:10;;;;;;;4.40;3.93;;;;;;;23.05;49.49;98868.91;10432957;28;20179;-79
2021/07/29 10:59:29;;;;;;;3.70;3.40;;;;;;;23.98;46.83;98872.19;10438776;28;20199;-80
2021/07/29 11:04:56;;;;;;;3.77;3.43;;;;;;;24.41;45.36;98843.75;10456127;28;20175;-80
2021/07/29 11:10:20;;;;;;;4.00;3.50;;;;;;;24.69;42.74;98839.16;10441162;28;20195;-76
2021/07/29 11:15:39;;;;;;;3.27;3.07;;;;;;;24.07;42.90;98855.91;10439733;28;20180;-76
2021/07/29 11:21:12;;;;;;;4.10;3.70;;;;;;;24.00;43.46;98859.16;10455582;28;20202;-79
2021/07/29 11:26:44;;;;;;;3.90;3.60;;;;;;;24.57;44.26;98843.94;10403029;28;20176;-80
2021/07/29 11:32:04;;;;;;;3.20;3.00;;;;;;;24.91;41.55;98854.19;10412658;28;20228;-81
2021/07/29 11:37:44;;;;;;;5.43;3.67;;;;;;;24.23;43.06;98869.41;10414330;28;20623;-80
2021/07/29 11:43:04;;;;;;;3.50;3.20;;;;;;;24.41;42.64;98855.78;10413656;28;20231;-81
2021/07/29 11:48:24;;;;;;;6.37;3.37;;;;;;;24.50;41.88;98841.56;10412899;28;20188;-79
2021/07/29 11:53:44;;;;;;;3.13;2.80;;;;;;;24.83;42.11;98847.47;10430618;28;20266;-79
2021/07/29 11:59:05;;;;;;;3.73;3.43;;;;;;;24.30;43.23;98843.66;10453617;28;20179;-79
2021/07/29 12:04:26;;;;;;;5.30;3.57;;;;;;;24.97;43.33;98847.28;10455014;28;20251;-79
2021/07/29 12:09:47;;;;;;;3.03;2.83;;;;;;;24.89;40.97;98865.16;10457619;28;20180;-79
2021/07/29 12:15:07;;;;;;;4.27;3.70;;;;;;;23.40;43.50;98853.56;10447721;28;20211;-79
2021/07/29 12:20:40;;;;;;;4.10;3.70;;;;;;;22.97;46.14;98853.69;10462116;28;20212;-79
2021/07/29 12:26:13;;;;;;;3.70;3.50;;;;;;;23.58;45.01;98866.56;10462150;28;20171;-79
2021/07/29 12:31:33;;;;;;;3.20;3.00;;;;;;;24.41;47.28;98847.34;10460172;28;20709;-80
2021/07/29 12:36:52;;;;;;;4.03;3.50;;;;;;;24.77;44.33;98843.81;10461822;28;20171;-80
2021/07/29 12:42:25;;;;;;;3.67;3.30;;;;;;;24.75;43.72;98839.97;10441738;28;20207;-80
2021/07/29 12:48:13;;;;;;;4.40;3.37;;;;;;;25.16;40.33;98837.22;10418964;28;20180;-79
2021/07/29 12:53:32;;;;;;;5.20;3.17;;;;;;;25.69;38.38;98822.34;10416113;28;20623;-80
2021/07/29 12:58:51;;;;;;;3.80;3.50;;;;;;;24.95;39.03;98825.78;10419616;28;20180;-79
2021/07/29 13:04:10;;;;;;;3.07;2.80;;;;;;;25.09;40.18;98826.44;10419590;28;20180;-81
2021/07/29 13:09:29;;;;;;;3.50;3.20;;;;;;;24.84;40.33;98820.09;10419087;28;20258;-81
2021/07/29 13:14:48;;;;;;;3.53;3.23;;;;;;;25.32;40.21;98819.63;10457859;28;20180;-81
2021/07/29 13:20:07;;;;;;;3.93;3.53;;;;;;;25.11;39.29;98823.09;10443537;28;20203;-80
2021/07/29 13:25:26;;;;;;;3.70;3.40;;;;;;;24.27;40.91;98822.16;10459775;28;20183;-79
2021/07/29 13:30:46;;;;;;;3.90;3.67;;;;;;;25.47;40.41;98820.22;10442541;28;20737;-81
2021/07/29 13:36:05;;;;;;;5.13;3.63;;;;;;;24.99;40.71;98818.66;10444830;28;20249;-81
2021/07/29 13:41:24;;;;;;;3.70;3.43;;;;;;;25.11;39.38;98807.00;10417661;28;20208;-80
2021/07/29 13:46:43;;;;;;;3.73;3.40;;;;;;;25.53;39.27;98808.97;10416131;28;20172;-80
2021/07/29 13:52:01;;;;;;;3.23;3.03;;;;;;;25.04;38.56;98815.09;10417700;28;20168;-81
2021/07/29 13:57:20;;;;;;;3.53;2.90;;;;;;;25.54;38.57;98807.72;10417225;28;20172;-80
2021/07/29 14:02:40;;;;;;;4.00;3.20;;;;;;;25.97;37.41;98804.28;10415631;28;20228;-81
2021/07/29 14:07:59;;;;;;;3.63;3.17;;;;;;;25.97;38.07;98790.94;10446343;28;20187;-79
2021/07/29 14:13:17;;;;;;;3.33;3.03;;;;;;;25.99;37.16;98807.38;10458060;28;20262;-80
2021/07/29 14:18:38;;;;;;;4.80;3.17;;;;;;;25.95;38.67;98804.00;10456434;28;20188;-81
2021/07/29 14:23:57;;;;;;;3.67;3.20;;;;;;;25.22;38.86;98807.03;10457600;28;20179;-79
2021/07/29 14:29:16;;;;;;;3.70;3.40;;;;;;;25.83;38.15;98799.63;10440659;28;20322;-80
2021/07/29 14:34:35;;;;;;;3.40;3.10;;;;;;;24.78;39.27;98793.97;10455240;28;20530;-80
2021/07/29 14:39:58;;;;;;;2.70;2.50;;;;;;;25.36;38.22;98797.63;10415752;28;20207;-80
2021/07/29 14:45:24;;;;;;;3.20;3.00;;;;;;;25.41;38.58;98805.34;10414137;28;20593;-80
2021/07/29 14:50:43;;;;;;;3.00;2.80;;;;;;;25.29;40.00;98786.84;10415464;28;20542;-79
2021/07/29 14:56:37;;;;;;;2.93;2.70;;;;;;;25.51;39.99;98797.44;10415390;28;20188;-80
2021/07/29 16:09:24;;;;;;;2.40;2.27;;;;;;;24.87;40.21;98774.06;10420811;28;20184;-77
2021/07/29 16:14:44;;;;;;;2.70;2.50;;;;;;;25.54;38.58;98765.44;10420076;28;20172;-76
2021/07/29 16:20:03;;;;;;;3.30;3.10;;;;;;;26.06;38.65;98761.75;10421020;28;20287;-76
2021/07/29 16:25:23;;;;;;;2.57;2.37;;;;;;;26.08;38.13;98762.00;10420800;28;20183;-75
2021/07/29 16:30:42;;;;;;;5.03;2.90;;;;;;;25.90;38.00;98762.50;10418948;28;20691;-75
2021/07/29 16:36:01;;;;;;;2.97;2.77;;;;;;;25.38;39.52;98747.19;10421053;28;20682;-76
2021/07/29 16:41:20;;;;;;;3.40;2.60;;;;;;;24.37;40.80;98753.22;10436752;28;20621;-76
2021/07/29 16:46:39;;;;;;;2.50;2.30;;;;;;;23.82;42.78;98754.75;10460018;28;20171;-76
2021/07/29 16:51:57;;;;;;;3.00;2.80;;;;;;;23.95;42.13;98755.91;10441707;28;20180;-76
2021/07/29 16:57:17;;;;;;;2.50;2.30;;;;;;;23.81;42.43;98744.78;10419086;28;20180;-76
2021/07/29 17:02:36;;;;;;;2.97;2.77;;;;;;;23.48;42.28;98755.63;10402610;28;20204;-76
2021/07/29 17:07:55;;;;;;;3.03;2.63;;;;;;;24.03;43.02;98750.63;10404210;28;20180;-76
2021/07/29 17:13:15;;;;;;;3.77;3.47;;;;;;;24.09;42.34;98749.41;10419329;28;20204;-76
2021/07/29 17:18:34;;;;;;;3.17;2.97;;;;;;;23.45;42.97;98753.84;10417844;28;20630;-77
2021/07/29 17:23:53;;;;;;;3.30;3.10;;;;;;;23.72;42.60;98753.34;10403343;28;20196;-76
2021/07/29 17:29:12;;;;;;;2.80;2.60;;;;;;;25.37;40.18;98747.72;10417223;28;20303;-75
2021/07/29 17:34:32;;;;;;;6.13;3.10;;;;;;;25.72;38.95;98748.84;10431566;28;20180;-75
2021/07/29 17:39:51;;;;;;;3.00;2.70;;;;;;;26.06;37.99;98739.94;10403271;28;20733;-75
2021/07/29 17:45:10;;;;;;;4.00;2.73;;;;;;;25.94;38.64;98740.44;10401216;28;20176;-75
2021/07/29 17:50:30;;;;;;;3.57;3.27;;;;;;;23.92;43.00;98739.28;10402660;28;20171;-76
2021/07/29 17:55:50;;;;;;;2.63;2.43;;;;;;;24.89;41.86;98735.69;10402262;28;20176;-76
2021/07/29 18:01:09;;;;;;;3.40;3.20;;;;;;;26.24;39.22;98735.88;10415354;28;20215;-75
2021/07/29 18:06:29;;;;;;;3.00;2.80;;;;;;;24.20;43.35;98741.81;10416564;28;20180;-76
2021/07/29 18:11:48;;;;;;;4.97;3.27;;;;;;;23.09;44.93;98751.59;10449017;28;20179;-76
2021/07/29 18:17:09;;;;;;;6.40;2.63;;;;;;;22.53;47.77;98742.88;10456697;28;20207;-76
2021/07/29 18:22:28;;;;;;;4.37;3.20;;;;;;;22.42;48.89;98736.31;10442061;28;20203;-76
2021/07/29 18:27:47;;;;;;;4.20;2.83;;;;;;;22.17;49.37;98742.53;10442065;28;20674;-77
2021/07/29 18:33:10;;;;;;;6.23;3.40;;;;;;;21.81;51.01;98740.13;10455237;28;20219;-77
2021/07/29 18:38:29;;;;;;;3.63;3.27;;;;;;;21.81;52.00;98749.28;10433596;28;20176;-76
2021/07/29 18:43:48;;;;;;;3.80;3.50;;;;;;;21.52;52.96;98747.69;10415048;28;20219;-76
2021/07/29 18:49:08;;;;;;;3.27;3.03;;;;;;;21.42;52.53;98741.41;10400719;28;20180;-77
2021/07/29 18:54:30;;;;;;;3.07;2.70;;;;;;;21.27;53.59;98749.00;10415498;28;20172;-76
2021/07/29 18:59:49;;;;;;;3.17;2.90;;;;;;;20.97;54.51;98735.38;10413733;28;20295;-76
2021/07/29 19:05:09;;;;;;;3.57;2.87;;;;;;;20.89;54.37;98748.19;10400138;28;20188;-78
2021/07/29 19:10:28;;;;;;;4.40;2.83;;;;;;;20.75;54.79;98748.06;10438478;28;20191;-77
2021/07/29 19:15:47;;;;;;;3.30;3.07;;;;;;;20.49;57.41;98747.75;10413520;28;20192;-76
2021/07/29 19:21:06;;;;;;;3.60;3.17;;;;;;;20.37;58.77;98756.34;10398535;28;20701;-75
2021/07/29 19:26:26;;;;;;;3.40;3.07;;;;;;;20.34;59.43;98769.25;10399610;28;20245;-75
2021/07/29 19:31:45;;;;;;;5.70;3.13;;;;;;;20.06;60.34;98772.59;10412618;28;20223;-77
2021/07/29 19:37:04;;;;;;;7.70;3.10;;;;;;;19.95;60.67;98771.56;10399421;28;20262;-77
2021/07/29 19:42:24;;;;;;;8.13;3.80;;;;;;;19.65;61.77;98775.28;10430498;28;20567;-76
2021/07/29 19:47:42;;;;;;;5.17;3.50;;;;;;;19.35;62.86;98777.00;10439034;28;20206;-77
2021/07/29 19:53:05;;;;;;;6.90;3.90;;;;;;;19.14;64.62;98788.31;10438791;28;20183;-76
2021/07/29 19:58:24;;;;;;;5.23;3.17;;;;;;;19.05;65.60;98787.47;10439988;28;20176;-76
2021/07/29 20:03:43;;;;;;;12.53;4.43;;;;;;;18.71;68.12;98784.94;10438441;28;20681;-76
2021/07/29 20:09:02;;;;;;;5.83;4.37;;;;;;;18.55;68.32;98783.19;10455030;28;20179;-77
2021/07/29 20:14:21;;;;;;;5.83;3.67;;;;;;;18.47;69.25;98787.50;10438700;28;20187;-77
2021/07/29 20:19:40;;;;;;;5.03;4.10;;;;;;;18.29;70.60;98783.88;10439315;28;20195;-77
2021/07/29 20:24:59;;;;;;;4.77;4.23;;;;;;;18.02;72.24;98788.47;10454584;28;20187;-77
2021/07/29 20:30:18;;;;;;;4.87;4.07;;;;;;;17.98;72.43;98779.50;10455133;28;20694;-77
2021/07/29 20:35:37;;;;;;;4.60;3.80;;;;;;;17.75;73.74;98768.84;10461630;28;20171;-77
2021/07/29 20:40:56;;;;;;;8.40;3.73;;;;;;;17.51;76.03;98772.53;10446379;28;20219;-76
2021/07/29 20:46:15;;;;;;;7.37;4.13;;;;;;;17.35;79.11;98764.38;10444994;28;20171;-79
2021/07/29 20:51:34;;;;;;;6.50;3.87;;;;;;;17.26;79.94;98764.25;10433161;28;20183;-79
2021/07/29 20:56:53;;;;;;;4.10;3.70;;;;;;;17.26;79.88;98755.94;10419747;28;20168;-79
2021/07/29 21:02:13;;;;;;;5.73;4.90;;;;;;;17.25;79.76;98769.06;10417922;28;20691;-77
2021/07/29 21:07:32;;;;;;;16.50;4.17;;;;;;;17.06;78.63;98772.91;10419367;28;20254;-78
2021/07/29 21:12:52;;;;;;;4.47;3.87;;;;;;;16.88;78.67;98780.28;10419303;28;20172;-78
2021/07/29 21:18:10;;;;;;;6.37;4.60;;;;;;;16.77;79.19;98781.88;10419699;28;20693;-77
2021/07/29 21:23:30;;;;;;;4.13;3.83;;;;;;;16.79;78.75;98783.78;10444414;28;20211;-76
2021/07/29 21:28:49;;;;;;;4.10;3.67;;;;;;;16.94;77.80;98790.41;10459616;28;20219;-77
2021/07/29 21:34:08;;;;;;;4.57;4.00;;;;;;;16.89;79.62;98781.84;10459489;28;20536;-78
2021/07/29 21:39:27;;;;;;;5.27;3.57;;;;;;;16.79;80.83;98780.19;10459421;28;20266;-77
2021/07/29 21:44:46;;;;;;;9.20;4.37;;;;;;;16.71;81.91;98767.00;10456760;28;20168;-77
2021/07/29 21:50:05;;;;;;;4.27;3.87;;;;;;;16.71;83.40;98772.56;10436306;28;20223;-77
2021/07/29 21:55:24;;;;;;;4.10;3.70;;;;;;;16.57;83.64;98773.81;10388159;28;20194;-77
2021/07/29 22:00:43;;;;;;;9.43;4.30;;;;;;;16.39;85.09;98778.38;10400972;28;20195;-78
2021/07/29 22:06:02;;;;;;;4.23;3.93;;;;;;;16.27;86.08;98779.09;10419167;28;20244;-78
2021/07/29 22:11:21;;;;;;;7.37;4.40;;;;;;;16.34;84.88;98788.03;10401934;28;20180;-77
2021/07/29 22:16:58;;;;;;;5.00;4.60;;;;;;;16.33;84.13;98772.59;10400371;28;20192;-77
2021/07/29 22:22:17;;;;;;;5.13;4.63;;;;;;;16.36;84.84;98774.47;10416084;28;20229;-78
2021/07/29 22:27:36;;;;;;;4.30;4.00;;;;;;;16.29;85.51;98777.47;10401176;28;20238;-77
2021/07/29 22:32:57;;;;;;;4.37;4.07;;;;;;;16.16;86.42;98773.91;10399207;28;20216;-78
2021/07/29 22:38:16;;;;;;;8.50;4.70;;;;;;;16.10;87.66;98777.66;10432448;28;20183;-77
2021/07/29 22:43:36;;;;;;;6.53;5.57;;;;;;;15.90;88.97;98766.00;10441149;28;20257;-78
2021/07/29 22:48:55;;;;;;;5.73;5.20;;;;;;;15.98;88.70;98776.44;10455643;28;20171;-77
2021/07/29 22:54:14;;;;;;;7.00;4.50;;;;;;;16.01;89.28;98783.09;10456535;28;20626;-77
2021/07/29 22:59:33;;;;;;;5.03;4.60;;;;;;;15.99;89.65;98774.44;10455256;28;20179;-77
2021/07/29 23:04:52;;;;;;;5.97;4.20;;;;;;;15.92;90.66;98782.97;10438856;28;20180;-77
2021/07/29 23:10:11;;;;;;;5.23;4.73;;;;;;;16.00;89.70;98770.44;10399989;28;20176;-77
2021/07/29 23:15:30;;;;;;;4.90;4.40;;;;;;;16.13;89.18;98762.91;10398617;28;20630;-78
2021/07/29 23:20:49;;;;;;;5.50;4.93;;;;;;;16.06;89.77;98765.91;10399505;28;20649;-78
2021/07/29 23:31:46;;;;;;;5.63;4.60;;;;;;;15.97;90.77;98760.22;10412680;28;20220;-78
2021/07/29 23:37:05;;;;;;;5.27;4.77;;;;;;;15.89;91.21;98755.31;10449070;28;20187;-78
2021/07/29 23:42:24;;;;;;;5.20;4.77;;;;;;;15.79;91.77;98746.13;10455201;28;20202;-78
2021/07/29 23:47:42;;;;;;;6.63;4.40;;;;;;;15.69;92.63;98744.41;10439046;28;20289;-77
2021/07/29 23:53:02;;;;;;;5.70;4.40;;;;;;;15.71;91.56;98744.78;10440290;28;20198;-79
2021/07/29 23:58:21;;;;;;;6.37;4.00;;;;;;;15.71;90.95;98747.53;10455178;28;20175;-78
